Time;durP1;ratioP1;P1;durP2;ratioP2;P2;SDS_P1;SDS_P2;PMS_P1;PMS_P2;Temp;Humidity;BMP_temperature;BMP_pressure;BME280_temperature;BME280_humidity;BME280_pressure;Samples;Min_cycle;Max_cycle;Signal;HPM_P1;HPM_P2
2023/01/11 00:01:05;;;;;;;6.60;5.90;;;8.20;99.90;;;;;;4987099;28;20062;-49
2023/01/11 00:03:31;;;;;;;6.88;5.82;;;8.20;99.90;;;;;;4982171;28;20046;-53
2023/01/11 00:05:58;;;;;;;6.93;5.85;;;8.20;99.90;;;;;;4992317;28;20350;-49
2023/01/11 00:08:27;;;;;;;7.25;6.55;;;8.20;99.90;;;;;;4989768;28;20058;-52
2023/01/11 00:10:54;;;;;;;7.85;6.22;;;8.20;99.90;;;;;;4991180;28;20100;-49
2023/01/11 00:13:19;;;;;;;7.70;5.82;;;8.30;99.90;;;;;;4989384;28;20259;-53
2023/01/11 00:15:45;;;;;;;6.70;6.03;;;8.30;99.90;;;;;;4984569;28;20134;-51
2023/01/11 00:18:11;;;;;;;6.15;5.60;;;8.30;99.90;;;;;;4992483;28;20365;-49
2023/01/11 00:20:40;;;;;;;6.43;5.80;;;8.40;99.90;;;;;;4989581;28;20107;-49
2023/01/11 00:23:06;;;;;;;5.90;5.40;;;8.40;99.90;;;;;;4988108;28;20061;-49
2023/01/11 00:25:32;;;;;;;5.57;5.07;;;8.40;99.90;;;;;;4989967;28;20508;-51
2023/01/11 00:27:57;;;;;;;6.35;5.75;;;8.50;99.90;;;;;;4985983;28;20066;-50
2023/01/11 00:30:23;;;;;;;6.75;6.15;;;8.50;99.90;;;;;;4980884;28;20097;-51
2023/01/11 00:32:49;;;;;;;6.60;5.57;;;;;;;;;;4980726;28;20047;-49
2023/01/11 00:35:15;;;;;;;6.55;5.88;;;8.60;99.90;;;;;;4957024;28;20092;-49
2023/01/11 00:37:41;;;;;;;8.27;5.90;;;8.60;99.90;;;;;;4989774;28;20439;-49
2023/01/11 00:40:07;;;;;;;5.82;5.32;;;8.60;99.90;;;;;;4986442;28;20043;-49
2023/01/11 00:48:04;;;;;;;6.18;5.43;;;8.60;99.90;;;;;;4987093;28;20058;-49
2023/01/11 00:50:35;;;;;;;5.65;5.15;;;8.70;99.90;;;;;;4982575;28;20053;-50
2023/01/11 00:53:01;;;;;;;6.80;5.38;;;8.70;99.90;;;;;;4981359;28;20038;-49
2023/01/11 00:55:26;;;;;;;5.55;5.05;;;8.80;99.90;;;;;;4984090;28;20065;-49
2023/01/11 00:57:52;;;;;;;5.53;4.90;;;8.80;99.90;;;;;;4986832;28;20409;-49
2023/01/11 01:00:20;;;;;;;5.65;5.10;;;8.80;99.90;;;;;;4989070;28;20043;-51
2023/01/11 01:02:46;;;;;;;5.45;4.63;;;8.80;99.90;;;;;;4986981;28;20513;-51
2023/01/11 01:05:13;;;;;;;6.43;5.80;;;8.80;99.90;;;;;;4990833;28;20117;-53
2023/01/11 01:07:38;;;;;;;6.85;5.20;;;8.80;99.90;;;;;;4985317;28;20093;-50
2023/01/11 01:10:05;;;;;;;5.55;4.93;;;8.80;99.90;;;;;;4991771;28;20069;-53
2023/01/11 01:15:17;;;;;;;5.97;5.38;;;8.90;99.90;;;;;;4982437;28;20302;-50
2023/01/11 01:17:43;;;;;;;6.00;5.15;;;8.90;99.90;;;;;;4990577;28;20073;-50
2023/01/11 01:20:10;;;;;;;5.88;4.90;;;8.90;99.90;;;;;;4998439;28;20054;-49
2023/01/11 01:22:35;;;;;;;5.68;5.18;;;8.90;99.90;;;;;;4991642;28;20047;-50
2023/01/11 01:25:01;;;;;;;7.20;5.93;;;8.90;99.90;;;;;;4976338;28;20070;-51
2023/01/11 01:27:26;;;;;;;8.07;5.80;;;8.90;99.90;;;;;;4986660;28;20341;-51
2023/01/11 01:29:52;;;;;;;7.25;5.60;;;8.90;99.90;;;;;;4990436;28;20101;-49
2023/01/11 01:32:17;;;;;;;6.13;5.53;;;8.90;99.90;;;;;;4980390;28;20042;-50
2023/01/11 01:34:43;;;;;;;5.90;5.40;;;8.90;99.90;;;;;;4983544;28;20133;-50
2023/01/11 01:37:10;;;;;;;7.72;5.63;;;8.90;99.90;;;;;;4984703;28;20468;-51
2023/01/11 01:39:36;;;;;;;7.43;5.07;;;9.00;99.90;;;;;;4986019;28;20110;-53
2023/01/11 01:42:02;;;;;;;6.15;5.22;;;9.00;99.90;;;;;;4984088;28;20523;-50
2023/01/11 01:44:53;;;;;;;6.25;5.45;;;9.00;99.90;;;;;;4989005;28;20081;-53
2023/01/11 01:47:54;;;;;;;6.97;5.72;;;9.00;99.90;;;;;;4986620;28;20456;-50
2023/01/11 01:50:25;;;;;;;7.68;5.90;;;9.00;99.90;;;;;;4984442;28;20038;-50
2023/01/11 01:52:57;;;;;;;8.70;5.97;;;9.00;99.90;;;;;;4984546;28;20042;-49
2023/01/11 01:55:28;;;;;;;9.52;6.03;;;9.00;99.90;;;;;;4979196;28;20096;-52
2023/01/11 01:57:56;;;;;;;7.28;5.68;;;9.10;99.90;;;;;;4972801;28;20060;-49
2023/01/11 02:00:22;;;;;;;9.40;5.65;;;9.10;99.90;;;;;;4978179;28;20042;-51
2023/01/11 02:02:48;;;;;;;7.13;5.80;;;9.10;99.90;;;;;;4979971;28;20533;-50
2023/01/11 02:05:16;;;;;;;7.45;5.75;;;9.20;99.90;;;;;;4979806;28;20038;-49
2023/01/11 02:07:43;;;;;;;10.15;6.10;;;9.20;99.90;;;;;;4979454;28;20109;-50
2023/01/11 02:10:19;;;;;;;9.27;6.00;;;9.20;99.90;;;;;;4977195;28;20109;-50
2023/01/11 02:12:56;;;;;;;10.35;5.90;;;9.20;99.90;;;;;;4979069;28;20062;-49
2023/01/11 02:15:22;;;;;;;7.07;6.15;;;9.30;99.90;;;;;;4979901;28;20045;-51
2023/01/11 02:17:48;;;;;;;7.47;5.68;;;9.30;99.90;;;;;;4980880;28;20093;-52
2023/01/11 02:20:31;;;;;;;8.98;5.57;;;9.30;99.90;;;;;;4985389;28;20066;-53
2023/01/11 02:23:21;;;;;;;6.32;5.72;;;9.30;99.90;;;;;;4986668;28;20054;-50
2023/01/11 02:26:25;;;;;;;5.03;4.53;;;9.30;99.90;;;;;;4975579;28;20460;-49
2023/01/11 02:29:07;;;;;;;6.00;4.90;;;9.40;99.90;;;;;;4987688;28;20049;-50
2023/01/11 02:31:37;;;;;;;7.00;5.38;;;9.40;99.90;;;;;;4982741;28;20035;-50
2023/01/11 02:34:09;;;;;;;5.78;5.20;;;9.50;99.90;;;;;;4985242;28;20043;-54
2023/01/11 02:37:13;;;;;;;6.43;5.20;;;9.40;99.90;;;;;;4984053;28;20174;-50
2023/01/11 02:39:39;;;;;;;6.90;5.25;;;9.50;99.90;;;;;;4984268;28;20037;-50
2023/01/11 02:45:44;;;;;;;5.72;4.53;;;9.50;99.90;;;;;;4984421;28;20058;-51
2023/01/11 02:48:22;;;;;;;5.35;4.57;;;9.50;99.90;;;;;;4988676;28;20268;-50
2023/01/11 02:51:10;;;;;;;5.30;4.00;;;9.60;99.90;;;;;;4984333;28;20046;-51
2023/01/11 02:53:39;;;;;;;;;;;9.60;99.90;;;;;;4983748;28;20061;-50
2023/01/11 02:56:10;;;;;;;5.75;4.32;;;9.60;99.90;;;;;;4983997;28;19926;-50
2023/01/11 02:58:38;;;;;;;4.20;3.80;;;9.60;99.90;;;;;;4981993;28;20042;-50
2023/01/11 03:01:05;;;;;;;4.13;3.78;;;9.60;99.90;;;;;;4984071;28;20054;-49
2023/01/11 03:03:32;;;;;;;4.55;3.75;;;9.60;99.90;;;;;;4978553;28;20405;-49
2023/01/11 03:06:05;;;;;;;4.20;3.80;;;9.60;99.90;;;;;;4978291;28;20185;-49
2023/01/11 03:08:58;;;;;;;4.43;4.03;;;9.60;99.90;;;;;;4977915;28;20085;-50
2023/01/11 03:15:15;;;;;;;5.68;3.67;;;9.70;99.90;;;;;;4964629;28;20077;-49
2023/01/11 03:17:59;;;;;;;4.00;3.67;;;9.60;99.90;;;;;;4986966;28;20036;-48
2023/01/11 03:20:30;;;;;;;5.78;3.60;;;9.70;99.90;;;;;;4989192;28;20327;-47
2023/01/11 03:23:27;;;;;;;4.13;3.72;;;9.70;99.90;;;;;;4989430;28;20042;-48
2023/01/11 03:26:35;;;;;;;4.00;3.70;;;9.70;99.90;;;;;;4985650;28;20074;-48
2023/01/11 03:29:06;;;;;;;4.13;3.72;;;9.70;99.90;;;;;;4987561;28;20035;-49
2023/01/11 03:31:44;;;;;;;5.28;3.80;;;9.70;99.90;;;;;;4984112;28;20046;-48
2023/01/11 03:34:32;;;;;;;4.40;3.33;;;9.70;99.90;;;;;;4987228;28;20400;-49
2023/01/11 03:37:11;;;;;;;3.90;3.60;;;9.70;99.90;;;;;;4984120;28;20081;-49
2023/01/11 03:39:45;;;;;;;4.05;3.65;;;9.80;99.90;;;;;;4984029;28;20046;-51
2023/01/11 03:42:15;;;;;;;3.50;3.20;;;9.70;99.90;;;;;;4980827;28;20486;-48
2023/01/11 03:44:48;;;;;;;3.92;3.60;;;9.80;99.90;;;;;;4979388;28;20080;-48
2023/01/11 03:47:17;;;;;;;3.53;3.25;;;9.80;99.90;;;;;;4982423;28;20093;-49
2023/01/11 03:49:50;;;;;;;5.53;3.40;;;9.80;99.90;;;;;;4985973;28;20576;-49
2023/01/11 03:52:21;;;;;;;3.25;2.97;;;9.90;99.90;;;;;;4991873;28;20543;-49
2023/01/11 03:54:48;;;;;;;7.45;3.50;;;9.90;99.90;;;;;;4990007;28;20054;-48
2023/01/11 03:57:19;;;;;;;3.13;2.83;;;9.90;99.90;;;;;;4989316;28;20045;-48
2023/01/11 03:59:45;;;;;;;3.15;2.95;;;9.90;99.90;;;;;;4990810;28;20105;-49
2023/01/11 04:02:24;;;;;;;2.88;2.67;;;9.90;99.90;;;;;;4990961;28;20046;-48
2023/01/11 04:04:49;;;;;;;4.47;2.80;;;10.00;99.90;;;;;;4990607;28;20070;-50
2023/01/11 04:07:15;;;;;;;3.22;2.80;;;10.00;99.90;;;;;;4989161;28;20077;-48
2023/01/11 04:09:41;;;;;;;3.30;2.95;;;10.00;99.90;;;;;;4990072;28;20054;-48
2023/01/11 04:12:07;;;;;;;3.13;2.83;;;10.00;99.90;;;;;;4988172;28;20077;-48
2023/01/11 04:14:33;;;;;;;3.53;3.22;;;10.00;99.90;;;;;;4990971;28;20128;-50
2023/01/11 04:16:58;;;;;;;3.58;3.28;;;10.00;99.90;;;;;;4967434;28;20043;-48
2023/01/11 04:19:24;;;;;;;5.05;3.20;;;10.00;99.90;;;;;;4982973;28;20093;-48
2023/01/11 04:21:49;;;;;;;3.22;2.80;;;10.10;99.90;;;;;;4981550;28;20172;-48
2023/01/11 04:24:17;;;;;;;3.05;2.75;;;10.00;99.90;;;;;;4980778;28;20050;-48
2023/01/11 04:26:43;;;;;;;3.53;3.20;;;10.10;99.90;;;;;;4981116;28;20042;-50
2023/01/11 04:29:09;;;;;;;3.60;3.10;;;10.10;99.90;;;;;;4981096;28;20614;-49
2023/01/11 04:31:34;;;;;;;3.05;2.85;;;10.00;99.90;;;;;;4982425;28;21717;-48
2023/01/11 04:34:00;;;;;;;3.03;2.75;;;10.00;99.90;;;;;;4982071;28;20425;-48
2023/01/11 04:36:27;;;;;;;3.33;2.90;;;10.10;99.90;;;;;;4979429;28;20176;-48
2023/01/11 04:38:53;;;;;;;2.97;2.77;;;10.00;99.90;;;;;;4983165;28;20042;-50
2023/01/11 04:44:03;;;;;;;2.50;2.30;;;10.10;99.90;;;;;;4980891;28;20050;-50
2023/01/11 04:46:29;;;;;;;2.40;2.20;;;10.10;99.90;;;;;;4982930;28;20401;-50
2023/01/11 04:48:55;;;;;;;3.10;2.40;;;10.10;99.90;;;;;;4976748;28;20118;-53
2023/01/11 04:51:21;;;;;;;2.53;2.25;;;10.10;99.90;;;;;;4976784;28;20042;-50
2023/01/11 04:53:48;;;;;;;6.00;2.50;;;10.10;99.90;;;;;;4978776;28;20070;-49
2023/01/11 04:56:15;;;;;;;4.13;2.80;;;10.10;99.90;;;;;;4976636;28;20413;-49
2023/01/11 04:58:40;;;;;;;2.90;2.58;;;10.20;99.90;;;;;;4976132;28;20034;-49
2023/01/11 05:01:11;;;;;;;3.03;2.65;;;10.20;99.90;;;;;;4976329;28;20049;-48
2023/01/11 05:03:37;;;;;;;5.25;2.78;;;10.20;99.90;;;;;;4977204;28;20042;-49
2023/01/11 05:06:03;;;;;;;5.22;3.00;;;10.20;99.90;;;;;;4977149;28;20149;-48
2023/01/11 05:08:30;;;;;;;4.00;3.20;;;10.20;99.90;;;;;;4975155;28;20050;-49
2023/01/11 05:10:58;;;;;;;6.80;3.20;;;10.20;99.90;;;;;;4975762;28;20536;-49
2023/01/11 05:13:40;;;;;;;;;;;10.20;99.90;;;;;;4978072;28;20303;-48
2023/01/11 05:16:32;;;;;;;6.40;3.72;;;10.30;99.90;;;;;;4982457;28;20333;-49
2023/01/11 05:19:00;;;;;;;4.40;3.70;;;10.20;99.90;;;;;;4982384;28;20389;-50
2023/01/11 05:21:32;;;;;;;7.68;4.68;;;10.30;99.90;;;;;;4986592;28;20047;-50
2023/01/11 05:23:59;;;;;;;7.10;4.20;;;10.20;99.90;;;;;;4987978;28;20046;-49
2023/01/11 05:26:27;;;;;;;8.30;4.75;;;10.20;99.90;;;;;;4978809;28;20122;-50
2023/01/11 05:28:55;;;;;;;8.10;5.70;;;10.30;99.90;;;;;;4986786;28;20085;-50
2023/01/11 05:31:21;;;;;;;7.60;5.70;;;10.30;99.90;;;;;;4978702;28;21656;-48
2023/01/11 05:33:47;;;;;;;7.68;5.65;;;10.30;99.90;;;;;;4980087;28;20062;-50
2023/01/11 05:36:18;;;;;;;9.88;5.45;;;10.30;99.90;;;;;;4978606;28;20046;-52
2023/01/11 05:38:46;;;;;;;9.40;5.45;;;10.30;99.90;;;;;;4979353;28;20054;-49
2023/01/11 05:41:12;;;;;;;10.13;6.00;;;10.40;99.90;;;;;;4979656;28;20049;-50
2023/01/11 05:46:23;;;;;;;9.43;5.97;;;10.30;99.90;;;;;;4980412;28;20042;-48
2023/01/11 05:48:49;;;;;;;15.07;6.95;;;10.40;99.90;;;;;;4979962;28;20039;-49
2023/01/11 05:51:15;;;;;;;11.13;6.57;;;10.40;99.90;;;;;;4986150;28;20035;-48
2023/01/11 05:53:40;;;;;;;12.02;6.32;;;10.40;99.90;;;;;;4984329;28;20169;-48
2023/01/11 05:56:06;;;;;;;12.30;6.22;;;10.30;99.90;;;;;;4985527;28;20121;-48
2023/01/11 05:58:32;;;;;;;14.27;6.38;;;10.40;99.90;;;;;;4983727;28;20034;-52
2023/01/11 06:00:57;;;;;;;15.80;7.20;;;10.30;99.90;;;;;;4984784;28;20436;-48
2023/01/11 06:03:24;;;;;;;13.05;6.50;;;;;;;;;;4984293;28;20046;-49
2023/01/11 06:05:51;;;;;;;18.45;6.65;;;;;;;;;;4988824;28;20038;-50
2023/01/11 06:08:17;;;;;;;12.48;6.75;;;;;;;;;;4999661;28;20047;-49
2023/01/11 06:10:49;;;;;;;18.90;7.03;;;10.30;99.90;;;;;;4985289;28;20507;-48
2023/01/11 06:13:27;;;;;;;14.82;7.10;;;10.30;99.90;;;;;;4983325;28;20050;-50
2023/01/11 06:15:53;;;;;;;18.27;6.93;;;10.40;99.90;;;;;;5000556;28;20046;-48
2023/01/11 06:18:20;;;;;;;13.48;6.78;;;10.40;99.90;;;;;;4980238;28;20070;-49
2023/01/11 06:20:53;;;;;;;22.00;6.97;;;10.30;99.90;;;;;;4978921;28;20096;-49
2023/01/11 06:23:19;;;;;;;19.58;6.60;;;10.30;99.90;;;;;;4977392;28;20042;-49
2023/01/11 06:25:45;;;;;;;17.92;6.18;;;10.30;99.90;;;;;;4978263;28;20581;-48
2023/01/11 06:28:12;;;;;;;21.90;5.80;;;10.30;99.90;;;;;;4980268;28;20046;-49
2023/01/11 06:30:38;;;;;;;18.92;5.85;;;10.30;99.90;;;;;;4978950;28;20377;-49
2023/01/11 06:33:07;;;;;;;21.02;5.78;;;10.30;99.90;;;;;;4975502;28;20043;-49
2023/01/11 06:35:39;;;;;;;20.02;5.22;;;10.30;99.90;;;;;;4978175;28;20118;-50
2023/01/11 06:38:07;;;;;;;24.05;5.30;;;10.20;99.90;;;;;;4980593;28;20518;-48
2023/01/11 06:40:34;;;;;;;14.02;4.75;;;10.30;99.90;;;;;;4979645;28;20042;-49
2023/01/11 06:42:59;;;;;;;20.30;4.90;;;10.20;99.90;;;;;;4976308;28;21652;-49
2023/01/11 06:45:25;;;;;;;21.00;4.80;;;10.20;99.90;;;;;;4978901;28;20126;-48
2023/01/11 06:47:51;;;;;;;21.17;4.88;;;10.20;99.90;;;;;;4977177;28;20121;-49
2023/01/11 06:50:16;;;;;;;22.50;4.70;;;10.10;99.90;;;;;;4982006;28;21360;-48
2023/01/11 06:52:42;;;;;;;19.10;4.85;;;10.10;99.90;;;;;;4976774;28;20048;-49
2023/01/11 06:55:08;;;;;;;24.85;5.75;;;10.20;99.90;;;;;;4982169;28;20051;-50
2023/01/11 06:57:34;;;;;;;23.10;4.80;;;10.10;99.90;;;;;;4964290;28;20046;-48
2023/01/11 07:00:00;;;;;;;23.58;4.32;;;10.00;99.90;;;;;;4982147;28;20034;-48
2023/01/11 07:02:25;;;;;;;20.85;4.38;;;10.10;99.90;;;;;;4982145;28;20105;-48
2023/01/11 07:04:51;;;;;;;24.48;4.53;;;10.00;99.90;;;;;;4980727;28;20046;-48
2023/01/11 07:07:17;;;;;;;16.90;4.30;;;10.00;99.90;;;;;;4980129;28;20117;-48
2023/01/11 07:09:43;;;;;;;25.42;4.93;;;10.00;99.90;;;;;;4978862;28;20061;-48
2023/01/11 07:12:08;;;;;;;22.15;5.28;;;10.00;99.90;;;;;;4982054;28;20063;-47
2023/01/11 07:14:34;;;;;;;18.42;4.10;;;10.00;99.90;;;;;;4984843;28;20390;-49
2023/01/11 07:16:59;;;;;;;20.67;4.60;;;9.90;99.90;;;;;;4984984;28;20089;-48
2023/01/11 07:19:25;;;;;;;21.55;4.13;;;10.00;99.90;;;;;;4983121;28;20330;-52
2023/01/11 07:21:51;;;;;;;25.30;4.80;;;9.90;99.90;;;;;;4984136;28;20500;-48
2023/01/11 07:24:16;;;;;;;22.63;4.40;;;9.90;99.90;;;;;;4982706;28;20046;-51
2023/01/11 07:26:42;;;;;;;18.73;4.30;;;9.90;99.90;;;;;;4989468;28;20508;-49
2023/01/11 07:29:08;;;;;;;20.75;4.70;;;9.80;99.90;;;;;;4981093;28;20039;-52
2023/01/11 07:31:34;;;;;;;19.08;4.15;;;9.80;99.90;;;;;;4982671;28;20078;-48
2023/01/11 07:33:59;;;;;;;27.65;4.63;;;9.80;99.90;;;;;;4982940;28;20085;-48
2023/01/11 07:36:25;;;;;;;23.00;5.15;;;9.90;99.90;;;;;;4984023;28;20039;-49
2023/01/11 07:38:51;;;;;;;24.50;4.50;;;9.80;99.90;;;;;;4982540;28;20053;-48
2023/01/11 07:44:01;;;;;;;25.75;4.63;;;9.90;99.90;;;;;;4982618;28;20073;-48
2023/01/11 07:46:27;;;;;;;26.30;5.10;;;9.90;99.90;;;;;;4985786;28;20072;-52
2023/01/11 07:48:52;;;;;;;28.50;4.75;;;9.80;99.90;;;;;;4980436;28;20381;-48
2023/01/11 07:51:21;;;;;;;24.55;5.18;;;9.90;99.90;;;;;;4982838;28;20034;-52
2023/01/11 07:53:46;;;;;;;24.02;4.20;;;9.90;99.90;;;;;;4983234;28;20096;-50
2023/01/11 07:56:12;;;;;;;24.15;4.65;;;9.90;99.90;;;;;;4980534;28;20038;-53
2023/01/11 07:58:38;;;;;;;22.38;4.00;;;9.90;99.90;;;;;;4977287;28;20073;-49
2023/01/11 08:01:04;;;;;;;22.45;3.95;;;9.90;99.90;;;;;;4977304;28;20042;-48
2023/01/11 08:03:29;;;;;;;21.05;4.43;;;9.90;99.90;;;;;;4977522;28;20046;-50
2023/01/11 08:05:55;;;;;;;19.58;3.90;;;9.90;99.90;;;;;;4976253;28;20213;-51
2023/01/11 08:08:21;;;;;;;18.67;3.42;;;9.80;99.90;;;;;;4975167;28;20184;-55
2023/01/11 08:14:37;;;;;;;18.73;3.65;;;9.90;99.90;;;;;;4984339;28;20047;-51
2023/01/11 08:16:16;;;;;;;19.83;3.55;;;9.80;99.90;;;;;;4981827;28;20052;-50
2023/01/11 08:18:42;;;;;;;18.98;3.42;;;9.80;99.90;;;;;;4979284;28;20039;-53
2023/01/11 08:21:08;;;;;;;18.50;3.90;;;9.80;99.90;;;;;;4976035;28;20061;-48
2023/01/11 08:23:34;;;;;;;24.50;3.72;;;9.80;99.90;;;;;;4976943;28;20042;-50
2023/01/11 08:26:00;;;;;;;17.08;3.40;;;9.80;99.90;;;;;;4977655;28;20054;-51
2023/01/11 08:28:26;;;;;;;19.75;3.75;;;9.70;99.90;;;;;;4977223;28;20373;-47
2023/01/11 08:30:51;;;;;;;18.98;2.90;;;9.70;99.90;;;;;;4976307;28;20042;-49
2023/01/11 08:33:17;;;;;;;17.95;3.03;;;9.70;99.90;;;;;;4976306;28;20479;-48
2023/01/11 08:35:43;;;;;;;21.27;3.97;;;9.60;99.90;;;;;;4976771;28;20046;-52
2023/01/11 08:38:09;;;;;;;21.20;3.70;;;9.60;99.90;;;;;;4976735;28;20481;-48
2023/01/11 08:40:35;;;;;;;20.48;3.20;;;9.60;99.90;;;;;;4978929;28;20038;-49
2023/01/11 08:43:01;;;;;;;16.02;3.10;;;9.60;99.90;;;;;;4980411;28;20509;-48
2023/01/11 08:45:27;;;;;;;17.35;3.25;;;9.60;99.90;;;;;;4980899;28;20339;-49
2023/01/11 08:47:54;;;;;;;22.38;3.72;;;9.60;99.90;;;;;;4981382;28;20038;-49
2023/01/11 08:50:20;;;;;;;21.27;3.80;;;9.60;99.90;;;;;;4978498;28;20050;-49
2023/01/11 08:52:46;;;;;;;22.60;3.40;;;9.60;99.90;;;;;;4981992;28;20049;-49
2023/01/11 08:55:12;;;;;;;20.67;3.72;;;9.60;99.90;;;;;;4980369;28;20041;-48
2023/01/11 08:57:37;;;;;;;20.90;4.05;;;9.60;99.90;;;;;;4966009;28;20047;-49
2023/01/11 09:00:05;;;;;;;17.88;3.50;;;9.60;99.90;;;;;;4984453;28;20053;-51
2023/01/11 09:02:30;;;;;;;21.95;3.88;;;9.60;99.90;;;;;;4987979;28;20047;-53
2023/01/11 09:04:56;;;;;;;21.83;4.07;;;9.60;99.90;;;;;;4992455;28;20089;-49
2023/01/11 09:07:21;;;;;;;21.02;4.05;;;9.60;99.90;;;;;;4994074;28;20434;-52
2023/01/11 09:09:47;;;;;;;21.27;3.67;;;9.60;99.90;;;;;;4994739;28;20057;-49
2023/01/11 09:12:13;;;;;;;21.45;3.90;;;9.60;99.90;;;;;;4994092;28;20105;-49
2023/01/11 09:14:40;;;;;;;24.90;5.22;;;9.60;99.90;;;;;;4990228;28;20044;-52
2023/01/11 09:17:05;;;;;;;16.85;3.90;;;9.60;99.90;;;;;;4982354;28;20049;-52
2023/01/11 09:19:32;;;;;;;22.35;5.20;;;9.60;99.90;;;;;;4994034;28;20046;-54
2023/01/11 09:22:01;;;;;;;16.35;4.53;;;9.60;99.90;;;;;;4994689;28;20050;-51
2023/01/11 09:24:28;;;;;;;15.82;4.38;;;9.60;99.90;;;;;;4993564;28;20409;-52
2023/01/11 09:26:57;;;;;;;19.50;3.80;;;9.60;99.90;;;;;;4989229;28;20038;-49
2023/01/11 09:29:23;;;;;;;16.20;3.90;;;9.60;99.90;;;;;;4991355;28;20038;-50
2023/01/11 09:31:48;;;;;;;18.70;4.35;;;9.60;99.90;;;;;;4990598;28;20041;-49
2023/01/11 09:34:14;;;;;;;15.23;3.78;;;9.50;99.90;;;;;;4989174;28;20500;-50
2023/01/11 09:36:40;;;;;;;13.20;3.63;;;9.50;99.90;;;;;;4993730;28;20053;-50
2023/01/11 09:39:13;;;;;;;13.73;3.50;;;9.50;99.90;;;;;;4978684;28;20105;-49
2023/01/11 09:41:55;;;;;;;18.77;3.85;;;9.40;99.90;;;;;;4993793;28;20440;-49
2023/01/11 09:44:25;;;;;;;13.02;3.45;;;9.40;99.90;;;;;;4993308;28;20169;-50
2023/01/11 09:46:55;;;;;;;19.08;4.22;;;9.30;99.90;;;;;;4987931;28;20562;-49
2023/01/11 09:49:28;;;;;;;19.30;3.38;;;9.30;99.90;;;;;;4992841;28;20042;-51
2023/01/11 09:52:08;;;;;;;19.23;3.10;;;9.30;99.90;;;;;;4992303;28;20409;-49
2023/01/11 09:54:34;;;;;;;16.83;3.60;;;9.30;99.90;;;;;;4991663;28;20031;-49
2023/01/11 09:57:12;;;;;;;16.75;3.13;;;9.30;99.90;;;;;;4983467;28;20084;-50
2023/01/11 09:59:55;;;;;;;18.65;3.92;;;9.30;99.90;;;;;;4992763;28;20042;-50
2023/01/11 10:02:33;;;;;;;21.25;4.07;;;9.30;99.90;;;;;;4990368;28;20053;-50
2023/01/11 10:05:10;;;;;;;18.13;3.38;;;9.30;99.90;;;;;;4990647;28;20209;-50
2023/01/11 10:08:13;;;;;;;22.03;3.70;;;9.30;99.90;;;;;;4993568;28;20050;-53
2023/01/11 10:10:53;;;;;;;20.38;3.65;;;9.30;99.90;;;;;;4992414;28;20121;-50
2023/01/11 10:13:44;;;;;;;23.95;4.43;;;9.30;99.90;;;;;;4995209;28;20061;-50
2023/01/11 10:16:23;;;;;;;15.43;3.53;;;9.20;99.90;;;;;;4984199;28;20046;-50
2023/01/11 10:19:19;;;;;;;18.67;3.50;;;9.20;99.90;;;;;;4991462;28;20066;-48
2023/01/11 10:22:00;;;;;;;19.92;3.42;;;9.20;99.90;;;;;;4987364;28;20113;-49
2023/01/11 10:24:37;;;;;;;21.58;3.97;;;9.20;99.90;;;;;;4991962;28;20047;-49
2023/01/11 10:27:09;;;;;;;16.70;3.72;;;9.30;99.90;;;;;;4993494;28;20493;-49
2023/01/11 10:36:09;;;;;;;16.45;3.90;;;9.30;99.90;;;;;;4991682;28;20046;-49
2023/01/11 10:42:06;;;;;;;20.20;3.80;;;9.30;99.90;;;;;;4992242;28;20050;-49
2023/01/11 10:45:04;;;;;;;16.25;3.47;;;9.40;99.90;;;;;;4987652;28;20038;-48
2023/01/11 10:47:43;;;;;;;16.60;3.50;;;9.40;99.90;;;;;;4989408;28;20069;-49
2023/01/11 10:50:37;;;;;;;19.45;3.80;;;9.50;99.90;;;;;;4992394;28;20444;-49
2023/01/11 10:53:24;;;;;;;22.23;3.90;;;9.60;99.90;;;;;;4984705;28;20090;-53
2023/01/11 10:56:00;;;;;;;18.17;4.00;;;9.60;99.90;;;;;;4991945;28;20061;-52
2023/01/11 10:58:53;;;;;;;20.95;3.65;;;9.70;99.90;;;;;;4994665;28;20070;-53
2023/01/11 11:01:49;;;;;;;18.92;3.75;;;9.70;99.90;;;;;;4987104;28;20057;-50
2023/01/11 11:04:36;;;;;;;17.65;4.32;;;9.70;99.90;;;;;;4989502;28;20054;-49
2023/01/11 11:07:17;;;;;;;21.45;3.88;;;9.80;99.90;;;;;;4988188;28;20489;-49
2023/01/11 11:10:15;;;;;;;20.83;3.90;;;9.90;99.90;;;;;;4981729;28;20048;-49
2023/01/11 11:13:22;;;;;;;22.52;4.13;;;9.90;99.90;;;;;;4985417;28;20066;-49
2023/01/11 11:16:09;;;;;;;17.13;3.88;;;9.90;99.90;;;;;;4989564;28;20070;-51
2023/01/11 11:18:34;;;;;;;23.65;4.65;;;9.90;99.90;;;;;;4986483;28;20050;-53
2023/01/11 11:21:05;;;;;;;19.08;4.00;;;9.90;99.90;;;;;;4988355;28;20516;-50
2023/01/11 11:23:31;;;;;;;17.92;3.92;;;9.80;99.90;;;;;;4991384;28;20045;-48
2023/01/11 11:26:01;;;;;;;20.55;4.30;;;9.80;99.90;;;;;;4988220;28;20577;-50
2023/01/11 11:28:31;;;;;;;18.25;4.15;;;9.80;99.90;;;;;;4988119;28;20093;-49
2023/01/11 11:31:01;;;;;;;14.60;3.70;;;9.80;99.90;;;;;;4987206;28;20804;-49
2023/01/11 11:33:38;;;;;;;16.25;3.83;;;9.80;99.90;;;;;;4980930;28;20070;-49
2023/01/11 11:36:12;;;;;;;22.98;4.18;;;9.80;99.90;;;;;;4988640;28;20046;-49
2023/01/11 11:38:40;;;;;;;15.48;3.72;;;9.80;99.90;;;;;;4988174;28;20050;-49
2023/01/11 11:41:07;;;;;;;;;;;9.90;99.90;;;;;;4983779;28;20439;-50
2023/01/11 11:43:37;;;;;;;21.40;3.55;;;9.80;99.90;;;;;;4985332;28;19922;-48
2023/01/11 11:46:20;;;;;;;18.05;3.65;;;9.90;99.90;;;;;;4984262;28;20038;-52
2023/01/11 11:49:09;;;;;;;17.98;3.50;;;9.90;99.90;;;;;;4987177;28;20501;-49
2023/01/11 11:51:35;;;;;;;19.63;3.72;;;9.80;99.90;;;;;;4985572;28;20042;-48
2023/01/11 11:54:01;;;;;;;15.82;2.75;;;9.80;99.90;;;;;;4987038;28;20061;-49
2023/01/11 11:56:36;;;;;;;21.52;3.22;;;9.90;99.90;;;;;;4987578;28;20066;-50
2023/01/11 11:59:08;;;;;;;18.95;3.65;;;9.80;99.90;;;;;;4981246;28;20448;-50
2023/01/11 12:01:38;;;;;;;17.98;3.60;;;9.90;99.90;;;;;;4984684;28;20045;-48
2023/01/11 12:04:42;;;;;;;16.55;3.63;;;9.90;99.90;;;;;;4986134;28;20083;-48
2023/01/11 12:07:14;;;;;;;13.65;2.70;;;10.00;99.90;;;;;;4982355;28;20078;-48
2023/01/11 12:09:47;;;;;;;17.33;3.72;;;10.10;99.90;;;;;;4985580;28;20576;-49
2023/01/11 12:12:18;;;;;;;17.25;3.10;;;10.10;99.90;;;;;;4981283;28;20058;-49
2023/01/11 12:15:03;;;;;;;15.80;3.55;;;10.10;99.90;;;;;;4984990;28;20476;-49
2023/01/11 12:17:29;;;;;;;19.38;4.03;;;10.00;99.90;;;;;;4985667;28;20046;-48
2023/01/11 12:19:55;;;;;;;17.00;3.25;;;10.00;99.90;;;;;;4985714;28;20043;-48
2023/01/11 12:22:24;;;;;;;21.15;3.78;;;9.90;99.90;;;;;;4986007;28;20044;-48
2023/01/11 12:25:12;;;;;;;20.95;3.50;;;10.00;99.90;;;;;;4985112;28;20070;-48
2023/01/11 12:27:55;;;;;;;16.75;3.15;;;10.00;99.90;;;;;;4980378;28;20377;-50
2023/01/11 12:30:30;;;;;;;16.25;2.97;;;10.00;99.90;;;;;;4987566;28;20038;-51
2023/01/11 12:33:20;;;;;;;17.85;3.28;;;10.00;99.90;;;;;;4990211;28;20050;-49
2023/01/11 12:35:55;;;;;;;17.40;2.95;;;10.00;99.90;;;;;;4991048;28;20030;-49
2023/01/11 12:38:28;;;;;;;19.48;3.38;;;9.90;99.90;;;;;;4990724;28;20104;-48
2023/01/11 12:41:06;;;;;;;15.15;2.97;;;9.90;99.90;;;;;;4991510;28;20042;-51
2023/01/11 12:44:16;;;;;;;20.92;3.08;;;9.80;99.90;;;;;;4984077;28;20121;-49
2023/01/11 12:46:52;;;;;;;17.33;2.72;;;9.80;99.90;;;;;;4981394;28;20066;-49
2023/01/11 12:49:52;;;;;;;18.33;3.10;;;9.70;99.90;;;;;;4989069;28;20101;-48
2023/01/11 12:53:10;;;;;;;19.08;3.92;;;9.70;99.90;;;;;;4981231;28;20629;-48
2023/01/11 12:55:55;;;;;;;19.10;3.67;;;9.70;99.90;;;;;;4957721;28;20405;-52
2023/01/11 12:58:43;;;;;;;21.30;3.92;;;9.40;99.90;;;;;;4991636;28;20488;-51
2023/01/11 13:01:44;;;;;;;17.13;3.25;;;9.30;99.90;;;;;;4992058;28;20043;-53
2023/01/11 13:04:54;;;;;;;19.33;3.85;;;9.40;99.90;;;;;;4983644;28;20092;-48
2023/01/11 13:07:38;;;;;;;16.45;3.00;;;9.30;99.90;;;;;;4988102;28;20136;-51
2023/01/11 13:10:15;;;;;;;17.85;3.70;;;9.20;99.90;;;;;;4995232;28;20050;-50
2023/01/11 13:12:47;;;;;;;19.13;3.17;;;9.20;99.90;;;;;;4996576;28;20058;-49
2023/01/11 13:15:18;;;;;;;12.15;3.17;;;9.10;99.90;;;;;;4996666;28;20493;-52
2023/01/11 13:17:50;;;;;;;14.85;3.35;;;;;;;;;;4996842;28;20046;-49
2023/01/11 13:20:44;;;;;;;13.80;3.15;;;9.20;99.90;;;;;;4995828;28;20088;-48
2023/01/11 13:23:25;;;;;;;19.55;3.83;;;9.30;99.90;;;;;;4994408;28;20390;-48
2023/01/11 13:25:51;;;;;;;16.15;3.13;;;9.30;99.90;;;;;;4993953;28;20050;-48
2023/01/11 13:28:31;;;;;;;19.77;3.70;;;9.40;99.90;;;;;;4989667;28;20692;-52
2023/01/11 13:30:58;;;;;;;14.10;3.78;;;9.50;99.90;;;;;;4995503;28;20113;-49
2023/01/11 13:33:26;;;;;;;14.18;3.17;;;9.70;99.90;;;;;;4988999;28;20410;-52
2023/01/11 13:35:59;;;;;;;16.13;3.38;;;9.90;99.90;;;;;;4977072;28;20038;-49
2023/01/11 13:38:51;;;;;;;15.23;4.18;;;10.00;99.90;;;;;;4977065;28;20046;-49
2023/01/11 13:41:40;;;;;;;16.60;3.33;;;10.00;99.90;;;;;;4982626;28;20050;-49
2023/01/11 13:44:24;;;;;;;19.67;3.45;;;9.90;99.90;;;;;;4985156;28;20062;-48
2023/01/11 13:47:06;;;;;;;17.08;3.92;;;9.90;99.90;;;;;;4976730;28;20039;-48
2023/01/11 13:50:02;;;;;;;17.60;3.10;;;9.80;99.90;;;;;;4976798;28;20054;-51
2023/01/11 13:52:57;;;;;;;17.35;3.17;;;9.70;99.90;;;;;;4984651;28;20053;-50